createdAt,value
2019-04-04T00:01:33.133Z,31.87
2019-04-04T00:04:02.192Z,32.77
2019-04-04T00:06:32.541Z,31.23
2019-04-04T00:09:03.057Z,33.30
2019-04-04T00:11:32.077Z,31.90
2019-04-04T00:14:01.152Z,31.83
2019-04-04T00:16:31.591Z,34.83
2019-04-04T00:19:00.516Z,33.90
2019-04-04T00:21:33.976Z,33.30
2019-04-04T00:24:02.968Z,33.87
2019-04-04T00:26:31.906Z,37.60
2019-04-04T00:29:01.513Z,37.33
2019-04-04T00:31:32.274Z,38.30
2019-04-04T00:34:01.410Z,33.87
2019-04-04T00:36:33.768Z,38.13
2019-04-04T00:39:03.950Z,41.40
2019-04-04T00:41:34.005Z,38.80
2019-04-04T00:44:03.116Z,39.33
2019-04-04T00:46:32.002Z,36.57
2019-04-04T00:49:04.548Z,37.53
2019-04-04T00:51:31.944Z,35.40
2019-04-04T00:54:00.778Z,40.47
2019-04-04T00:56:29.767Z,36.40
2019-04-04T00:58:58.697Z,37.47
2019-04-04T01:01:27.738Z,38.40
2019-04-04T01:03:57.160Z,38.10
2019-04-04T01:06:26.124Z,35.93
2019-04-04T01:08:55.244Z,35.30
2019-04-04T01:11:24.239Z,38.97
2019-04-04T01:13:53.296Z,40.70
2019-04-04T01:16:22.258Z,36.67
2019-04-04T01:18:51.436Z,33.40
2019-04-04T01:21:22.193Z,38.87
2019-04-04T01:23:51.080Z,35.57
2019-04-04T01:26:20.118Z,37.87
2019-04-04T01:28:48.950Z,34.60
2019-04-04T01:31:20.723Z,35.47
2019-04-04T01:33:51.664Z,38.53
2019-04-04T01:36:20.552Z,35.40
2019-04-04T01:38:49.609Z,40.83
2019-04-04T01:41:18.508Z,31.63
2019-04-04T01:43:47.628Z,34.57
2019-04-04T01:46:19.281Z,36.63
2019-04-04T01:48:50.043Z,35.57
2019-04-04T01:51:18.892Z,34.67
2019-04-04T01:53:47.736Z,38.07
2019-04-04T01:56:16.597Z,38.70
2019-04-04T01:58:45.529Z,38.47
2019-04-04T02:01:16.238Z,39.57
2019-04-04T02:03:45.245Z,36.50
2019-04-04T02:06:14.330Z,34.93
2019-04-04T02:08:43.259Z,34.30
2019-04-04T02:11:12.136Z,38.57
2019-04-04T02:13:41.531Z,37.27
2019-04-04T02:16:10.593Z,39.83
2019-04-04T02:18:39.455Z,37.30
2019-04-04T02:21:08.305Z,35.90
2019-04-04T02:23:37.383Z,34.23
2019-04-04T02:26:06.208Z,34.67
2019-04-04T02:28:35.290Z,36.97
2019-04-04T02:31:06.128Z,32.20
2019-04-04T02:33:37.698Z,31.57
2019-04-04T02:36:08.743Z,30.87
2019-04-04T02:38:37.755Z,30.20
2019-04-04T02:41:15.036Z,32.13
2019-04-04T02:43:43.167Z,26.97
2019-04-04T02:46:12.413Z,29.93
2019-04-04T02:48:41.990Z,30.43
2019-04-04T02:51:16.252Z,28.97
2019-04-04T02:53:51.654Z,30.13
2019-04-04T02:56:16.474Z,28.23
2019-04-04T02:58:46.334Z,27.70
2019-04-04T03:01:19.184Z,28.50
2019-04-04T03:03:48.126Z,29.67
2019-04-04T03:06:23.859Z,30.87
2019-04-04T03:08:51.308Z,31.77
2019-04-04T03:11:22.115Z,26.10
2019-04-04T03:13:51.005Z,27.67
2019-04-04T03:16:21.364Z,26.10
2019-04-04T03:18:50.591Z,28.00
2019-04-04T03:21:23.478Z,27.67
2019-04-04T03:23:52.745Z,31.13
2019-04-04T03:26:21.827Z,26.43
2019-04-04T03:28:51.089Z,27.97
2019-04-04T03:31:19.901Z,28.63
2019-04-04T03:33:48.857Z,24.60
2019-04-04T03:36:17.936Z,28.63
2019-04-04T03:38:47.385Z,27.90
2019-04-04T03:41:16.708Z,25.67
2019-04-04T03:43:48.074Z,30.37
2019-04-04T03:46:17.330Z,28.27
2019-04-04T03:48:49.861Z,29.50
2019-04-04T03:51:16.885Z,31.77
2019-04-04T03:53:54.390Z,26.17
2019-04-04T03:56:23.315Z,30.83
2019-04-04T03:58:52.443Z,30.60
2019-04-04T04:01:21.483Z,28.90
2019-04-04T04:03:54.534Z,26.67
2019-04-04T04:06:21.067Z,33.00
2019-04-04T04:08:53.621Z,29.67
2019-04-04T04:11:20.720Z,31.03
2019-04-04T04:13:50.153Z,30.53
2019-04-04T04:16:20.601Z,30.07
2019-04-04T04:18:53.999Z,31.43
2019-04-04T04:21:20.055Z,29.53
2019-04-04T04:23:49.939Z,28.07
2019-04-04T04:26:18.935Z,28.97
2019-04-04T04:28:52.045Z,25.80
2019-04-04T04:31:18.531Z,30.40
2019-04-04T04:33:47.724Z,29.70
2019-04-04T04:36:16.793Z,28.10
2019-04-04T04:38:45.762Z,25.13
2019-04-04T04:41:14.812Z,32.70
2019-04-04T04:43:43.667Z,28.53
2019-04-04T04:46:16.919Z,25.03
2019-04-04T04:48:43.578Z,27.83
2019-04-04T04:51:12.834Z,26.57
2019-04-04T04:53:41.960Z,32.50
2019-04-04T04:56:11.023Z,26.60
2019-04-04T04:58:41.769Z,25.23
2019-04-04T05:01:10.669Z,23.27
2019-04-04T05:03:39.488Z,25.03
2019-04-04T05:06:08.362Z,29.80
2019-04-04T05:08:41.042Z,25.73
2019-04-04T05:11:09.819Z,27.10
2019-04-04T05:13:39.001Z,25.40
2019-04-04T05:16:09.044Z,27.67
2019-04-04T05:18:40.208Z,26.57
2019-04-04T05:21:09.292Z,28.50
2019-04-04T05:23:38.289Z,27.13
2019-04-04T05:26:09.519Z,24.17
2019-04-04T05:28:37.854Z,21.87
2019-04-04T05:31:06.638Z,23.13
2019-04-04T05:33:35.344Z,27.53
2019-04-04T05:36:05.299Z,23.80
2019-04-04T05:38:34.809Z,26.30
2019-04-04T05:41:03.609Z,27.03
2019-04-04T05:43:32.383Z,23.97
2019-04-04T05:46:01.420Z,24.90
2019-04-04T05:48:30.176Z,26.20
2019-04-04T05:50:59.030Z,24.37
2019-04-04T05:53:27.753Z,23.10
2019-04-04T05:55:56.713Z,22.00
2019-04-04T05:58:25.584Z,26.47
2019-04-04T06:00:57.515Z,23.73
2019-04-04T06:03:25.171Z,25.43
2019-04-04T06:05:54.781Z,23.53
2019-04-04T06:08:23.609Z,28.23
2019-04-04T06:10:55.386Z,23.13
2019-04-04T06:13:25.018Z,26.23
2019-04-04T06:15:56.256Z,22.90
2019-04-04T06:18:25.104Z,26.20
2019-04-04T06:20:53.954Z,21.57
2019-04-04T06:23:23.080Z,25.53
2019-04-04T06:25:53.379Z,24.80
2019-04-04T06:28:22.217Z,24.27
2019-04-04T06:30:53.590Z,23.33
2019-04-04T06:33:21.675Z,23.73
2019-04-04T06:35:50.361Z,29.67
2019-04-04T06:38:19.346Z,26.03
2019-04-04T06:41:02.306Z,24.13
2019-04-04T06:43:31.058Z,22.80
2019-04-04T06:46:00.094Z,26.70
2019-04-04T06:48:29.353Z,26.80
2019-04-04T06:50:59.703Z,27.37
2019-04-04T06:53:28.536Z,24.03
2019-04-04T06:55:58.170Z,26.47
2019-04-04T06:58:27.880Z,25.83
2019-04-04T07:00:56.701Z,24.93
2019-04-04T07:03:27.855Z,23.47
2019-04-04T07:05:55.989Z,25.43
2019-04-04T07:08:24.841Z,26.57
2019-04-04T07:10:58.094Z,23.10
2019-04-04T07:13:27.069Z,24.00
2019-04-04T07:16:06.344Z,26.27
2019-04-04T07:18:25.539Z,25.13
2019-04-04T07:20:54.316Z,25.47
2019-04-04T07:23:23.183Z,24.07
2019-04-04T07:25:53.580Z,25.20
2019-04-04T07:28:22.505Z,25.87
2019-04-04T07:30:54.379Z,23.97
2019-04-04T07:33:21.973Z,25.30
2019-04-04T07:35:52.750Z,25.07
2019-04-04T07:38:21.552Z,24.37
2019-04-04T07:40:50.467Z,25.50
2019-04-04T07:43:20.001Z,25.67
2019-04-04T07:45:49.307Z,24.67
2019-04-04T07:48:18.636Z,23.27
2019-04-04T07:50:47.798Z,25.37
2019-04-04T07:53:16.661Z,22.90
2019-04-04T07:55:45.532Z,25.17
2019-04-04T07:58:14.486Z,21.50
2019-04-04T08:00:43.488Z,25.30
2019-04-04T08:03:12.253Z,21.70
2019-04-04T08:05:41.343Z,22.20
2019-04-04T08:08:10.123Z,23.20
2019-04-04T08:10:39.047Z,24.03
2019-04-04T08:13:07.824Z,23.57
2019-04-04T08:15:36.672Z,21.03
2019-04-04T08:18:05.434Z,23.43
2019-04-04T08:20:34.598Z,22.73
2019-04-04T08:23:03.354Z,23.47
2019-04-04T08:25:32.225Z,24.70
2019-04-04T08:28:01.073Z,21.93
2019-04-04T08:30:29.999Z,23.03
2019-04-04T08:32:58.753Z,23.70
2019-04-04T08:35:27.533Z,21.20
2019-04-04T08:37:56.488Z,22.77
2019-04-04T08:40:25.294Z,21.37
2019-04-04T08:42:54.148Z,22.27
2019-04-04T08:45:24.711Z,22.70
2019-04-04T08:47:53.550Z,20.63
2019-04-04T08:50:22.310Z,23.87
2019-04-04T08:52:51.125Z,22.80
2019-04-04T08:55:19.932Z,21.57
2019-04-04T08:57:48.693Z,21.27
2019-04-04T09:00:17.543Z,20.67
2019-04-04T09:02:46.306Z,23.93
2019-04-04T09:05:15.025Z,18.60
2019-04-04T09:07:43.905Z,22.57
2019-04-04T09:10:12.730Z,20.53
2019-04-04T09:12:42.630Z,21.50
2019-04-04T09:15:11.331Z,20.87
2019-04-04T09:17:40.261Z,19.23
2019-04-04T09:20:09.718Z,21.47
2019-04-04T09:22:40.924Z,19.87
2019-04-04T09:25:10.623Z,20.17
2019-04-04T09:27:39.584Z,20.30
2019-04-04T09:30:08.827Z,19.73
2019-04-04T09:32:37.710Z,20.40
2019-04-04T09:35:07.245Z,19.83
2019-04-04T09:37:35.989Z,20.70
2019-04-04T09:40:05.281Z,21.70
2019-04-04T09:42:34.113Z,23.23
2019-04-04T09:45:02.972Z,19.27
2019-04-04T09:47:31.892Z,20.23
2019-04-04T09:50:00.758Z,20.27
2019-04-04T09:52:29.841Z,19.97
2019-04-04T09:54:58.571Z,22.37
2019-04-04T09:57:27.262Z,21.83
2019-04-04T09:59:56.121Z,22.10
2019-04-04T10:02:24.874Z,20.33
2019-04-04T10:04:53.580Z,22.53
2019-04-04T10:07:25.119Z,20.13
2019-04-04T10:09:53.292Z,21.93
2019-04-04T10:12:22.020Z,21.40
2019-04-04T10:14:51.053Z,22.57
2019-04-04T10:17:19.801Z,22.60
2019-04-04T10:19:48.616Z,21.80
2019-04-04T10:22:17.535Z,22.80
2019-04-04T10:24:46.539Z,24.43
2019-04-04T10:27:15.370Z,22.63
2019-04-04T10:29:44.261Z,20.33
2019-04-04T10:32:13.071Z,20.77
2019-04-04T10:34:42.047Z,20.73
2019-04-04T10:37:11.274Z,18.27
2019-04-04T10:39:40.049Z,20.70
2019-04-04T10:42:08.837Z,24.77
2019-04-04T10:44:38.730Z,23.57
2019-04-04T10:47:07.696Z,21.47
2019-04-04T10:49:36.577Z,22.93
2019-04-04T10:52:05.377Z,23.83
2019-04-04T10:54:34.281Z,24.80
2019-04-04T10:57:03.191Z,23.77
2019-04-04T10:59:32.257Z,23.07
2019-04-04T11:02:01.222Z,22.47
2019-04-04T11:04:30.037Z,23.00
2019-04-04T11:06:58.772Z,23.43
2019-04-04T11:09:27.620Z,22.67
2019-04-04T11:11:56.615Z,21.43
2019-04-04T11:14:25.543Z,21.20
2019-04-04T11:16:54.630Z,19.60
2019-04-04T11:19:30.988Z,21.27
2019-04-04T11:21:55.313Z,21.53
2019-04-04T11:24:24.138Z,20.60
2019-04-04T11:26:53.359Z,22.30
2019-04-04T11:29:22.249Z,20.13
2019-04-04T11:31:51.363Z,21.83
2019-04-04T11:34:20.253Z,21.07
2019-04-04T11:36:49.170Z,21.30
2019-04-04T11:39:19.595Z,23.27
2019-04-04T11:41:48.514Z,21.07
2019-04-04T11:44:17.415Z,20.03
2019-04-04T11:46:46.244Z,17.70
2019-04-04T11:49:15.207Z,16.60
2019-04-04T11:51:44.149Z,15.50
2019-04-04T11:54:13.660Z,15.63
2019-04-04T11:56:43.028Z,15.37
2019-04-04T11:59:11.867Z,14.63
2019-04-04T12:01:42.178Z,17.53
2019-04-04T12:04:11.099Z,13.13
2019-04-04T12:06:39.983Z,13.20
2019-04-04T12:09:09.181Z,17.93
2019-04-04T12:11:38.081Z,13.97
2019-04-04T12:14:06.982Z,14.43
2019-04-04T12:16:37.076Z,16.60
2019-04-04T12:19:06.111Z,16.33
2019-04-04T12:21:35.103Z,15.47
2019-04-04T12:24:04.025Z,14.73
2019-04-04T12:26:32.879Z,16.77
2019-04-04T12:29:01.839Z,14.77
2019-04-04T12:31:30.746Z,17.33
2019-04-04T12:34:02.841Z,17.50
2019-04-04T12:36:31.902Z,16.10
2019-04-04T12:39:00.985Z,16.67
2019-04-04T12:41:29.982Z,15.97
2019-04-04T12:43:58.911Z,14.97
2019-04-04T12:46:27.773Z,14.73
2019-04-04T12:48:58.961Z,14.33
2019-04-04T12:51:27.821Z,14.73
2019-04-04T12:53:56.831Z,14.10
2019-04-04T12:56:25.879Z,14.80
2019-04-04T12:58:54.966Z,13.27
2019-04-04T13:01:26.748Z,12.93
2019-04-04T13:03:55.724Z,13.60
2019-04-04T13:06:25.447Z,15.03
2019-04-04T13:08:54.375Z,13.70
2019-04-04T13:11:23.316Z,15.17
2019-04-04T13:13:52.242Z,13.10
2019-04-04T13:16:21.164Z,13.37
2019-04-04T13:18:50.373Z,13.33
2019-04-04T13:21:21.383Z,11.80
2019-04-04T13:23:49.871Z,11.00
2019-04-04T13:26:19.055Z,11.93
2019-04-04T13:28:47.951Z,11.80
2019-04-04T13:31:17.263Z,12.40
2019-04-04T13:33:48.511Z,10.57
2019-04-04T13:36:17.371Z,12.57
2019-04-04T13:38:46.393Z,11.23
2019-04-04T13:41:21.714Z,11.67
2019-04-04T13:43:45.878Z,11.10
2019-04-04T13:46:14.683Z,11.83
2019-04-04T13:48:44.197Z,11.10
2019-04-04T13:51:12.921Z,10.90
2019-04-04T13:53:41.732Z,12.10
2019-04-04T13:56:10.447Z,12.10
2019-04-04T13:58:39.350Z,10.63
2019-04-04T14:01:08.351Z,10.27
2019-04-04T14:03:37.346Z,13.07
2019-04-04T14:06:07.531Z,10.50
2019-04-04T14:08:39.514Z,11.87
2019-04-04T14:11:09.166Z,9.67
2019-04-04T14:13:37.962Z,11.30
2019-04-04T14:16:08.222Z,12.13
2019-04-04T14:18:39.978Z,10.77
2019-04-04T14:21:08.244Z,11.37
2019-04-04T14:23:45.125Z,12.60
2019-04-04T14:26:12.423Z,11.43
2019-04-04T14:28:43.049Z,9.23
2019-04-04T14:31:12.436Z,10.30
2019-04-04T14:33:41.682Z,11.00
2019-04-04T14:36:13.002Z,12.57
2019-04-04T14:38:42.072Z,10.57
2019-04-04T14:41:11.929Z,10.80
2019-04-04T14:43:41.143Z,9.20
2019-04-04T14:46:10.211Z,11.10
2019-04-04T14:48:42.145Z,8.97
2019-04-04T14:51:09.790Z,11.93
2019-04-04T14:53:40.620Z,9.83
2019-04-04T14:56:09.472Z,9.40
2019-04-04T14:58:40.261Z,10.87
2019-04-04T15:01:09.213Z,9.93
2019-04-04T15:03:38.155Z,10.63
2019-04-04T15:06:07.135Z,11.27
2019-04-04T15:08:36.134Z,13.43
2019-04-04T15:11:05.137Z,10.57
2019-04-04T15:13:33.971Z,9.83
2019-04-04T15:16:15.804Z,9.37
2019-04-04T15:18:44.931Z,12.70
2019-04-04T15:21:14.165Z,11.43
2019-04-04T15:23:43.118Z,9.00
2019-04-04T15:26:12.073Z,10.20
2019-04-04T15:28:41.078Z,10.37
2019-04-04T15:31:10.148Z,10.77
2019-04-04T15:33:39.144Z,10.57
2019-04-04T15:36:08.077Z,10.70
2019-04-04T15:38:37.062Z,9.63
2019-04-04T15:41:07.821Z,9.53
2019-04-04T15:43:36.821Z,10.87
2019-04-04T15:46:05.892Z,10.87
2019-04-04T15:48:34.804Z,11.40
2019-04-04T15:51:08.263Z,9.37
2019-04-04T15:53:37.300Z,9.37
2019-04-04T15:56:08.946Z,9.97
2019-04-04T15:58:38.044Z,9.90
2019-04-04T16:01:10.297Z,12.70
2019-04-04T16:03:39.125Z,11.17
2019-04-04T16:06:08.169Z,11.60
2019-04-04T16:08:37.203Z,12.50
2019-04-04T16:11:06.290Z,10.83
2019-04-04T16:13:35.365Z,10.80
2019-04-04T16:16:04.256Z,11.03
2019-04-04T16:18:33.232Z,11.70
2019-04-04T16:21:03.910Z,12.40
2019-04-04T16:23:34.703Z,10.77
2019-04-04T16:26:03.660Z,9.60
2019-04-04T16:28:32.719Z,10.53
2019-04-04T16:31:02.916Z,11.80
2019-04-04T16:33:32.022Z,12.60
2019-04-04T16:36:01.152Z,10.77
2019-04-04T16:38:56.769Z,10.80
2019-04-04T16:41:23.404Z,11.13
2019-04-04T16:44:00.961Z,13.00
2019-04-04T16:46:30.280Z,10.97
2019-04-04T16:49:00.476Z,10.23
2019-04-04T16:51:29.619Z,11.40
2019-04-04T16:53:58.654Z,10.90
2019-04-04T16:56:27.939Z,9.60
2019-04-04T16:59:07.302Z,11.47
2019-04-04T17:01:39.688Z,7.87
2019-04-04T17:04:10.831Z,9.47
2019-04-04T17:06:46.420Z,10.43
2019-04-04T17:09:21.963Z,10.10
2019-04-04T17:12:17.570Z,11.13
2019-04-04T17:14:48.867Z,9.43
2019-04-04T17:17:28.084Z,8.97
2019-04-04T17:20:08.648Z,10.27
2019-04-04T17:22:42.040Z,8.93
2019-04-04T17:25:34.825Z,9.87
2019-04-04T17:28:09.967Z,9.80
2019-04-04T17:30:45.128Z,9.53
2019-04-04T17:33:21.193Z,9.40
2019-04-04T17:35:52.528Z,8.83
2019-04-04T17:38:28.329Z,9.77
2019-04-04T17:41:10.518Z,9.80
2019-04-04T17:43:45.112Z,9.03
2019-04-04T17:46:25.138Z,12.43
2019-04-04T17:49:02.099Z,10.37
2019-04-04T17:51:36.559Z,10.00
2019-04-04T17:54:12.099Z,8.90
2019-04-04T17:56:40.989Z,9.97
2019-04-04T17:59:25.135Z,10.30
2019-04-04T18:01:57.057Z,9.27
2019-04-04T18:04:29.157Z,9.97
2019-04-04T18:06:58.436Z,10.03
2019-04-04T18:09:32.133Z,9.83
2019-04-04T18:12:01.347Z,11.60
2019-04-04T18:14:35.189Z,11.33
2019-04-04T18:17:08.673Z,12.50
2019-04-04T18:19:46.248Z,12.40
2019-04-04T18:22:20.799Z,11.10
2019-04-04T18:24:52.870Z,12.57
2019-04-04T18:27:31.370Z,14.70
2019-04-04T18:30:06.549Z,12.27
2019-04-04T18:32:35.721Z,13.67
2019-04-04T18:35:05.434Z,13.67
2019-04-04T18:37:37.072Z,16.30
2019-04-04T18:40:14.769Z,15.60
2019-04-04T18:42:53.527Z,13.97
2019-04-04T18:45:22.775Z,14.10
2019-04-04T18:47:54.377Z,14.53
2019-04-04T18:50:23.547Z,15.67
2019-04-04T18:52:54.074Z,14.60
2019-04-04T18:55:23.535Z,13.73
2019-04-04T18:57:52.934Z,13.33
2019-04-04T19:00:23.143Z,16.57
2019-04-04T19:02:52.497Z,15.37
2019-04-04T19:05:21.675Z,15.87
2019-04-04T19:07:51.238Z,16.07
2019-04-04T19:10:20.064Z,16.83
2019-04-04T19:12:51.922Z,17.33
2019-04-04T19:15:23.922Z,16.27
2019-04-04T19:17:57.353Z,17.23
2019-04-04T19:20:31.588Z,15.77
2019-04-04T19:23:01.005Z,16.80
2019-04-04T19:25:31.436Z,18.50
2019-04-04T19:28:00.554Z,17.47
2019-04-04T19:30:40.875Z,20.37
2019-04-04T19:33:23.094Z,20.47
2019-04-04T19:35:52.378Z,21.33
2019-04-04T19:38:21.452Z,17.77
2019-04-04T19:40:50.350Z,18.87
2019-04-04T19:43:22.816Z,19.17
2019-04-04T19:45:51.534Z,22.30
2019-04-04T19:48:21.345Z,19.80
2019-04-04T19:50:51.077Z,23.73
2019-04-04T19:57:33.898Z,23.53
